Time;durP1;ratioP1;P1;durP2;ratioP2;P2;SDS_P1;SDS_P2;PMS_P1;PMS_P2;Temp;Humidity;BMP_temperature;BMP_pressure;BME280_temperature;BME280_humidity;BME280_pressure;Samples;Min_cycle;Max_cycle;Signal;HPM_P1;HPM_P2
2024/04/08 00:03:06;;;;;;;0.20;0.15;;;;;;;17.31;62.40;100784.50;15607870;28;20029;-49
2024/04/08 00:10:43;;;;;;;0.10;0.10;;;;;;;17.37;62.72;100775.31;15598588;28;20133;-49
2024/04/08 00:18:17;;;;;;;0.10;0.10;;;;;;;17.18;63.42;100772.13;15614396;28;20037;-47
2024/04/08 00:25:52;;;;;;;0.00;0.00;;;;;;;17.11;63.58;100765.25;15604142;28;20112;-50
2024/04/08 00:33:26;;;;;;;0.35;0.35;;;;;;;16.70;65.09;100781.78;15612109;28;20487;-53
2024/04/08 00:41:02;;;;;;;0.43;0.32;;;;;;;16.99;64.31;100765.38;15614324;28;20753;-49
2024/04/08 00:48:36;;;;;;;0.10;0.10;;;;;;;16.60;65.08;100773.53;15614348;28;20494;-48
2024/04/08 00:56:13;;;;;;;2.95;1.25;;;;;;;16.40;65.76;100768.59;15605358;28;20524;-49
2024/04/08 01:03:52;;;;;;;1.25;0.70;;;;;;;15.77;67.24;100688.56;15611692;28;20049;-52
2024/04/08 01:11:32;;;;;;;0.00;0.00;;;;;;;15.64;68.06;100623.94;15604185;28;20103;-50
2024/04/08 01:19:13;;;;;;;0.00;0.00;;;;;;;16.51;64.15;100618.66;15604757;28;20045;-48
2024/04/08 01:26:48;;;;;;;0.00;0.00;;;;;;;17.14;61.55;100672.53;15611483;28;20397;-53
2024/04/08 01:34:23;;;;;;;1.48;0.57;;;;;;;16.63;63.68;100774.91;15607941;28;20387;-49
2024/04/08 01:41:58;;;;;;;0.00;0.00;;;;;;;16.77;63.44;100739.06;15615542;28;20041;-52
2024/04/08 01:49:36;;;;;;;1.85;0.65;;;;;;;17.18;62.55;100720.59;15599730;28;20037;-49
2024/04/08 01:57:14;;;;;;;0.00;0.00;;;;;;;17.49;61.32;100734.50;15608273;28;20044;-49
2024/04/08 02:04:48;;;;;;;1.08;0.52;;;;;;;17.26;62.81;100713.91;15608517;28;20104;-48
2024/04/08 02:12:27;;;;;;;0.25;0.25;;;;;;;17.31;62.06;100706.63;15601372;28;20037;-50
2024/04/08 02:20:01;;;;;;;0.28;0.22;;;;;;;17.31;63.30;100695.78;15608821;28;20042;-50
2024/04/08 02:27:36;;;;;;;1.85;0.50;;;;;;;17.27;63.03;100689.22;15599704;28;20076;-48
2024/04/08 02:35:10;;;;;;;0.47;0.47;;;;;;;17.15;63.37;100668.72;15599107;28;20040;-52
2024/04/08 02:42:45;;;;;;;0.75;0.57;;;;;;;17.14;62.96;100650.84;15593457;28;20116;-49
2024/04/08 02:50:19;;;;;;;0.55;0.55;;;;;;;17.06;63.57;100655.63;15590097;28;20041;-47
2024/04/08 02:57:58;;;;;;;0.10;0.10;;;;;;;16.65;63.42;100646.22;15606965;28;20426;-46
2024/04/08 03:05:32;;;;;;;0.52;0.52;;;;;;;17.18;62.61;100654.66;15589909;28;20073;-54
2024/04/08 03:13:08;;;;;;;0.50;0.50;;;;;;;16.94;63.52;100651.44;15591328;28;20038;-49
2024/04/08 03:20:54;;;;;;;0.32;0.32;;;;;;;16.58;65.39;100640.16;15665052;23;20394;-53
2024/04/08 03:28:31;;;;;;;0.95;0.65;;;;;;;16.53;65.84;100654.44;15670026;28;20096;-52
2024/04/08 03:36:09;;;;;;;0.00;0.00;;;;;;;16.52;65.56;100654.72;15659345;28;20493;-46
2024/04/08 03:43:44;;;;;;;0.00;0.00;;;;;;;16.46;66.32;100636.72;15674159;28;20079;-48
2024/04/08 03:51:18;;;;;;;0.45;0.30;;;;;;;16.48;66.44;100640.03;15663819;28;20203;-47
2024/04/08 03:58:54;;;;;;;0.10;0.10;;;;;;;16.35;66.53;100641.22;15674323;28;20493;-52
2024/04/08 04:06:29;;;;;;;0.28;0.28;;;;;;;16.46;66.55;100642.16;15673273;28;20033;-49
2024/04/08 04:14:05;;;;;;;0.05;0.05;;;;;;;16.26;67.18;100629.16;15663169;28;20048;-54
2024/04/08 04:21:42;;;;;;;0.20;0.20;;;;;;;16.33;67.21;100619.81;15665093;28;20127;-51
2024/04/08 04:29:19;;;;;;;0.47;0.47;;;;;;;16.28;67.36;100613.50;15665588;28;20037;-51
2024/04/08 04:36:55;;;;;;;5.85;0.57;;;;;;;16.32;67.36;100637.13;15671284;28;20415;-50
2024/04/08 04:44:32;;;;;;;0.73;0.52;;;;;;;15.73;69.21;100628.69;15664753;28;20548;-46
2024/04/08 04:52:13;;;;;;;0.20;0.10;;;;;;;16.19;67.62;100610.41;15669373;28;20128;-53
2024/04/08 04:59:49;;;;;;;0.00;0.00;;;;;;;16.29;67.45;100625.97;15671142;28;20131;-51
2024/04/08 05:07:22;;;;;;;0.00;0.00;;;;;;;15.43;71.10;100641.69;15670007;28;20505;-50
2024/04/08 05:15:00;;;;;;;0.85;0.63;;;;;;;16.09;68.51;100650.88;15669105;28;20059;-48
2024/04/08 05:22:35;;;;;;;0.20;0.20;;;;;;;16.28;67.48;100657.66;15670259;28;20091;-48
2024/04/08 05:30:11;;;;;;;0.32;0.22;;;;;;;16.46;67.40;100661.97;15673900;28;20552;-49
2024/04/08 05:37:45;;;;;;;0.10;0.10;;;;;;;16.51;67.53;100667.44;15666500;28;20040;-51
2024/04/08 05:45:21;;;;;;;6.70;2.20;;;;;;;16.57;68.38;100719.81;15664449;28;20049;-53
2024/04/08 05:52:55;;;;;;;1.38;0.90;;;;;;;16.60;68.24;100713.91;15667293;28;20555;-49
2024/04/08 06:00:31;;;;;;;0.80;0.20;;;;;;;16.97;67.02;100716.00;15668965;28;20410;-55
2024/04/08 06:08:07;;;;;;;0.00;0.00;;;;;;;16.77;67.27;100725.53;15660241;28;20524;-48
2024/04/08 06:15:42;;;;;;;0.47;0.47;;;;;;;17.28;66.14;100719.88;15662345;28;20387;-46
2024/04/08 06:23:17;;;;;;;0.65;0.63;;;;;;;17.77;65.16;100745.09;15666382;28;20091;-49
2024/04/08 06:30:52;;;;;;;0.08;0.08;;;;;;;17.73;64.20;100740.41;15673331;28;20044;-50
2024/04/08 06:38:26;;;;;;;0.05;0.05;;;;;;;17.97;63.85;100738.19;15668100;28;20025;-50
2024/04/08 06:46:05;;;;;;;0.40;0.32;;;;;;;17.97;63.33;100746.34;15665913;28;20115;-50
2024/04/08 06:53:38;;;;;;;0.05;0.05;;;;;;;18.17;62.05;100761.97;15654239;28;20041;-55
2024/04/08 07:01:14;;;;;;;0.75;0.63;;;;;;;18.00;62.50;100745.81;15645390;28;20463;-53
2024/04/08 07:08:48;;;;;;;0.00;0.00;;;;;;;18.44;61.32;100729.28;15664584;28;20049;-46
2024/04/08 07:16:23;;;;;;;0.00;0.00;;;;;;;18.79;60.59;100736.84;15656184;28;20517;-51
2024/04/08 07:23:58;;;;;;;0.75;0.65;;;;;;;19.33;58.24;100756.38;15658379;28;20037;-50
2024/04/08 07:31:33;;;;;;;1.88;1.10;;;;;;;19.78;57.67;100724.09;15656893;28;20115;-53
2024/04/08 07:39:07;;;;;;;5.25;1.83;;;;;;;20.30;57.01;100720.22;15637242;28;20493;-47
2024/04/08 07:46:44;;;;;;;0.08;0.08;;;;;;;19.18;58.93;100649.38;15638344;28;20310;-51
2024/04/08 07:54:17;;;;;;;0.65;0.35;;;;;;;19.73;56.65;100596.09;15653890;28;20199;-47
2024/04/08 08:01:55;;;;;;;0.75;0.40;;;;;;;19.32;57.42;100673.09;15649556;28;20056;-51
2024/04/08 08:09:28;;;;;;;0.60;0.57;;;;;;;20.07;55.33;100656.22;15658516;28;20033;-52
2024/04/08 08:17:06;;;;;;;0.28;0.28;;;;;;;19.46;57.96;100610.75;15664781;28;20041;-54
2024/04/08 08:24:46;;;;;;;0.43;0.40;;;;;;;19.54;58.41;100609.41;15665885;28;20497;-50
2024/04/08 08:32:22;;;;;;;1.65;0.90;;;;;;;18.84;59.83;100525.56;15658547;28;20033;-48
2024/04/08 08:39:55;;;;;;;0.75;0.43;;;;;;;18.93;58.98;100549.50;15639407;28;20387;-49
2024/04/08 08:47:32;;;;;;;0.28;0.28;;;;;;;19.56;57.02;100523.63;15679193;28;20037;-50
2024/04/08 08:55:06;;;;;;;0.10;0.10;;;;;;;20.01;57.77;100521.91;15672238;28;20036;-47
2024/04/08 09:02:44;;;;;;;0.38;0.38;;;;;;;21.04;54.88;100530.34;15667450;28;20048;-49
2024/04/08 09:10:19;;;;;;;0.30;0.25;;;;;;;21.25;52.55;100550.09;15646637;28;20037;-52
2024/04/08 09:18:04;;;;;;;0.20;0.20;;;;;;;20.71;55.48;100570.94;15653244;28;20156;-52
2024/04/08 09:25:41;;;;;;;0.13;0.10;;;;;;;21.33;54.78;100552.25;15657892;28;20064;-49
2024/04/08 09:33:16;;;;;;;0.20;0.20;;;;;;;22.38;51.93;100532.25;15653592;28;20541;-53
2024/04/08 09:40:51;;;;;;;0.17;0.17;;;;;;;23.79;47.51;100572.50;15653209;28;20052;-51
2024/04/08 09:48:26;;;;;;;1.13;0.75;;;;;;;21.72;52.19;100499.41;15619276;23;20303;-50
2024/04/08 09:56:03;;;;;;;0.20;0.20;;;;;;;23.09;50.98;100511.22;15611663;28;20063;-51
2024/04/08 10:03:46;;;;;;;0.13;0.13;;;;;;;24.77;46.97;100526.28;15605579;28;20046;-53
2024/04/08 10:11:20;;;;;;;0.55;0.55;;;;;;;25.85;43.88;100525.19;15601573;28;20079;-51
2024/04/08 10:18:57;;;;;;;0.50;0.43;;;;;;;27.20;40.75;100525.22;15604798;28;20532;-52
2024/04/08 10:26:36;;;;;;;0.10;0.10;;;;;;;27.34;40.49;100515.94;15614069;28;20068;-51
2024/04/08 10:34:13;;;;;;;1.08;0.75;;;;;;;28.25;37.34;100531.13;15613796;28;20467;-51
2024/04/08 10:41:47;;;;;;;0.35;0.35;;;;;;;27.85;37.18;100516.94;15607481;28;20510;-53
2024/04/08 10:49:23;;;;;;;3.90;1.13;;;;;;;27.04;37.77;100515.00;15613124;28;20442;-51
2024/04/08 10:56:56;;;;;;;2.67;0.80;;;;;;;28.66;36.56;100502.75;15609705;28;20310;-51
2024/04/08 11:04:32;;;;;;;1.13;0.73;;;;;;;28.32;35.60;100517.63;15612783;28;20088;-53
2024/04/08 11:12:07;;;;;;;0.38;0.38;;;;;;;27.95;36.57;100517.34;15609401;28;20089;-53
2024/04/08 11:19:44;;;;;;;0.55;0.45;;;;;;;27.56;37.62;100515.72;15610677;28;20041;-51
2024/04/08 11:27:18;;;;;;;0.38;0.20;;;;;;;28.56;35.15;100481.09;15626297;28;20466;-51
2024/04/08 11:34:53;;;;;;;0.47;0.40;;;;;;;29.10;34.63;100513.44;15609666;28;20038;-52
2024/04/08 11:42:27;;;;;;;0.20;0.10;;;;;;;29.53;33.22;100482.56;15611479;28;20077;-53
2024/04/08 11:50:03;;;;;;;0.25;0.17;;;;;;;30.75;32.73;100465.00;15612650;28;20038;-51
2024/04/08 11:57:36;;;;;;;1.08;0.77;;;;;;;29.68;33.74;100476.38;15621953;28;20213;-52
2024/04/08 12:05:14;;;;;;;0.35;0.32;;;;;;;30.66;31.91;100453.25;15614580;28;20228;-51
2024/04/08 12:12:47;;;;;;;0.68;0.55;;;;;;;30.96;28.70;100465.59;15616934;28;20506;-54
2024/04/08 12:20:23;;;;;;;11.02;1.17;;;;;;;30.39;29.87;100461.19;15620249;28;20033;-51
2024/04/08 12:27:59;;;;;;;0.10;0.00;;;;;;;30.87;30.08;100442.78;15618326;28;20045;-53
2024/04/08 12:35:36;;;;;;;4.05;0.57;;;;;;;31.06;29.02;100436.56;15617325;28;20049;-53
2024/04/08 12:43:10;;;;;;;0.55;0.50;;;;;;;30.54;28.68;100431.13;15619810;28;20103;-51
2024/04/08 12:50:46;;;;;;;1.45;0.55;;;;;;;30.78;28.52;100428.28;15619450;28;20498;-56
2024/04/08 12:58:21;;;;;;;0.55;0.30;;;;;;;30.54;29.57;100433.88;15617533;28;20037;-55
2024/04/08 13:05:56;;;;;;;6.22;2.00;;;;;;;29.70;30.76;100434.50;15618295;28;20076;-51
2024/04/08 13:13:38;;;;;;;1.77;1.10;;;;;;;29.84;30.55;100421.13;15618499;28;20041;-53
2024/04/08 13:21:16;;;;;;;0.52;0.43;;;;;;;29.83;30.43;100419.53;15618022;28;20041;-53
2024/04/08 13:28:52;;;;;;;3.05;1.38;;;;;;;29.23;30.12;100419.13;15615198;28;20044;-51
2024/04/08 13:36:27;;;;;;;5.75;1.85;;;;;;;28.60;30.37;100426.00;15615438;28;20033;-52
2024/04/08 13:44:00;;;;;;;0.40;0.20;;;;;;;28.84;31.05;100433.56;15615274;28;20502;-54
2024/04/08 13:51:36;;;;;;;0.43;0.35;;;;;;;28.38;30.84;100425.19;15611668;28;20037;-55
2024/04/08 13:59:11;;;;;;;0.13;0.10;;;;;;;28.27;31.82;100418.44;15607445;28;20099;-54
2024/04/08 14:06:46;;;;;;;2.60;0.30;;;;;;;28.44;31.76;100420.28;15613858;28;20037;-51
2024/04/08 14:14:19;;;;;;;1.23;0.95;;;;;;;28.37;32.98;100420.81;15610895;28;20076;-51
2024/04/08 17:20:14;;;;;;;0.20;0.20;;;;;;;25.09;37.52;100322.03;15611900;28;20136;-53
2024/04/08 17:27:51;;;;;;;0.10;0.10;;;;;;;25.60;36.71;100338.94;15609615;28;20048;-52
2024/04/08 17:35:26;;;;;;;3.47;0.93;;;;;;;25.77;38.26;100340.97;15606124;28;20061;-54
2024/04/08 17:42:59;;;;;;;0.30;0.30;;;;;;;25.45;40.06;100342.97;15606830;28;20072;-55
2024/04/08 17:50:37;;;;;;;0.10;0.10;;;;;;;25.26;40.59;100342.44;15610227;28;20061;-52
2024/04/08 17:58:10;;;;;;;0.28;0.28;;;;;;;24.02;39.90;100338.44;15611668;28;20437;-50
2024/04/08 18:05:46;;;;;;;1.08;0.43;;;;;;;24.18;40.19;100342.44;15606626;28;20048;-50
2024/04/08 18:13:22;;;;;;;2.90;1.45;;;;;;;24.24;40.57;100345.03;15607324;28;20048;-52
2024/04/08 18:21:02;;;;;;;1.75;0.75;;;;;;;23.76;45.88;100334.66;15601185;28;20045;-52
2024/04/08 18:28:37;;;;;;;1.60;0.85;;;;;;;23.41;47.15;100331.56;15610171;28;20038;-52
2024/04/08 18:36:13;;;;;;;3.40;0.95;;;;;;;23.05;47.64;100332.25;15606539;28;20482;-56
2024/04/08 18:43:48;;;;;;;0.00;0.00;;;;;;;22.71;48.11;100331.75;15609865;28;20446;-52
2024/04/08 18:51:24;;;;;;;1.95;0.90;;;;;;;22.26;49.60;100335.00;15608316;28;20497;-53
2024/04/08 18:58:59;;;;;;;0.10;0.08;;;;;;;22.02;50.50;100326.88;15605747;28;20041;-51
2024/04/08 19:06:34;;;;;;;0.35;0.35;;;;;;;21.66;51.70;100326.56;15604642;28;20083;-55
2024/04/08 19:14:08;;;;;;;1.15;0.63;;;;;;;21.49;52.59;100321.59;15601915;28;20065;-52
2024/04/08 19:21:43;;;;;;;0.85;0.75;;;;;;;21.22;52.31;100321.38;15605813;28;20037;-49
2024/04/08 19:29:16;;;;;;;0.10;0.10;;;;;;;20.99;53.37;100320.28;15605601;28;20415;-53
2024/04/08 19:36:52;;;;;;;0.63;0.63;;;;;;;20.72;54.46;100316.19;15606258;28;20128;-53
2024/04/08 19:44:25;;;;;;;0.20;0.20;;;;;;;20.73;53.81;100317.81;15601425;28;20116;-50
2024/04/08 19:52:02;;;;;;;2.92;1.00;;;;;;;20.59;54.73;100312.22;15600040;28;20430;-55
2024/04/08 19:59:35;;;;;;;8.07;0.77;;;;;;;20.38;54.77;100305.31;15607337;28;20037;-48
2024/04/08 20:07:10;;;;;;;1.80;1.05;;;;;;;20.15;55.81;100293.22;15607725;28;20041;-51
2024/04/08 20:14:44;;;;;;;13.65;2.38;;;;;;;20.08;55.73;100284.53;15617626;28;20047;-48
2024/04/08 20:22:19;;;;;;;3.63;0.38;;;;;;;19.90;56.51;100294.22;15616558;28;20459;-53
2024/04/08 20:29:52;;;;;;;1.00;0.63;;;;;;;19.90;55.93;100301.56;15613375;28;20410;-53
2024/04/08 20:37:28;;;;;;;1.42;1.25;;;;;;;19.59;56.40;100293.56;15617397;28;20044;-52
2024/04/08 20:45:02;;;;;;;1.00;0.70;;;;;;;19.55;57.26;100289.78;15613903;28;20046;-51
2024/04/08 20:52:37;;;;;;;0.95;0.75;;;;;;;19.34;57.53;100292.59;15615119;28;20047;-52
2024/04/08 21:00:12;;;;;;;0.88;0.88;;;;;;;19.08;58.50;100278.28;15604932;28;20059;-52
2024/04/08 21:07:47;;;;;;;6.50;2.20;;;;;;;18.92;59.15;100286.78;15602875;28;20041;-52
2024/04/08 21:15:23;;;;;;;2.25;1.10;;;;;;;18.62;59.65;100283.03;15600181;28;20251;-52
2024/04/08 21:22:58;;;;;;;0.10;0.10;;;;;;;18.42;60.56;100274.88;15586134;28;20103;-52
2024/04/08 21:30:32;;;;;;;2.00;1.27;;;;;;;18.25;61.46;100275.19;15604622;28;20045;-52
2024/04/08 21:38:10;;;;;;;0.70;0.70;;;;;;;18.04;62.02;100266.19;15606868;28;20052;-52
2024/04/08 21:45:50;;;;;;;4.38;2.28;;;;;;;17.98;62.66;100256.44;15611187;28;20114;-55
2024/04/08 21:53:27;;;;;;;0.68;0.68;;;;;;;17.79;62.96;100261.56;15623821;28;20125;-54
2024/04/08 22:01:04;;;;;;;0.38;0.30;;;;;;;17.81;62.49;100260.22;15625713;28;20038;-54
2024/04/08 22:08:42;;;;;;;0.32;0.30;;;;;;;17.67;63.35;100259.06;15603370;28;20041;-52
2024/04/08 22:16:18;;;;;;;1.85;1.10;;;;;;;17.64;63.08;100266.97;15598338;28;20095;-52
2024/04/08 22:23:53;;;;;;;1.10;0.85;;;;;;;17.59;63.46;100265.06;15608922;28;20049;-51
2024/04/08 22:31:27;;;;;;;0.52;0.30;;;;;;;17.44;63.74;100273.97;15608725;28;20538;-52
2024/04/08 22:39:02;;;;;;;1.08;0.77;;;;;;;17.34;64.45;100271.19;15607886;28;20042;-51
2024/04/08 22:46:36;;;;;;;2.22;0.95;;;;;;;17.41;64.06;100270.97;15607392;28;20482;-49
2024/04/08 22:54:11;;;;;;;0.95;0.47;;;;;;;17.45;63.29;100262.03;15604199;28;20533;-49
2024/04/08 23:01:45;;;;;;;1.02;0.75;;;;;;;17.28;63.38;100247.88;15606778;28;20041;-55
2024/04/08 23:09:28;;;;;;;2.97;1.07;;;;;;;17.92;59.86;100230.38;15603752;28;20048;-51
2024/04/08 23:17:02;;;;;;;0.22;0.22;;;;;;;18.32;58.19;100218.66;15604618;28;20037;-51
2024/04/08 23:24:37;;;;;;;0.28;0.25;;;;;;;18.57;57.33;100223.22;15606467;28;20506;-51
2024/04/08 23:32:11;;;;;;;2.90;0.47;;;;;;;18.86;56.80;100221.53;15605903;28;20142;-52
2024/04/08 23:39:46;;;;;;;1.35;0.50;;;;;;;18.78;58.34;100240.31;15597261;28;20038;-52
2024/04/08 23:47:20;;;;;;;1.50;0.25;;;;;;;18.27;60.08;100229.53;15609627;28;20121;-53
2024/04/08 23:54:56;;;;;;;0.77;0.60;;;;;;;17.92;61.54;100227.66;15609019;28;20042;-53
